Flight Track Log - Related Links

Times and Time Zones

All times are in EST time to prevent confusion due to time zone crossing. See the N884FT flight status page for this flight to view local times or setup timezone preferences in your user account.

Time Position Orientation Groundspeed Altitude Reporting Facility
EST Latitude Longitude Course Direction KTS km/h feet Rate Location/Type
Mon 23:08:00 26.6162 -80.1808 345° North  Level Estimated
Mon 23:09:00 26.6558 -80.1930 345° North  Level Estimated
Mon 23:10:00 26.6954 -80.2052 345° North  Level Estimated
Mon 23:11:00 26.7350 -80.2175 345° North  Level Estimated
Mon 23:12:00 26.7747 -80.2297 345° North  Level Estimated
Mon 23:13:00 26.8143 -80.2419 345° North  Level Estimated
Mon 23:14:00 26.8539 -80.2542 345° North  Level Estimated
Mon 23:15:00 26.8935 -80.2664 345° North  Level Estimated
Mon 23:16:00 26.9331 -80.2787 345° North  Level Estimated
Mon 23:17:00 26.9727 -80.2910 345° North  Level Estimated
Mon 23:18:00 27.0123 -80.3033 345° North  Level Estimated
Mon 23:18:12 26.9364 -80.2794 339° North 146 270 5,000  Level Miami Center
Mon 23:19:00 27.0519 -80.3156 345° North  Level Estimated
Mon 23:19:13 26.9694 -80.2922 341° North 146 270 5,000  Level Miami Center
Mon 23:20:00 27.0915 -80.3279 345° North  Level Estimated
Mon 23:20:15 27.0086 -80.3097 338° Northwest 152 282 5,000  Level Miami Center
Mon 23:21:00 27.1311 -80.3402 345° North  Level Estimated
Mon 23:21:12 27.0500 -80.3272 339° North 144 267 5,000  Level Miami Center
Mon 23:22:12 27.0894 -80.3422 341° North 144 267 5,000  Level Miami Center
Mon 23:23:15 27.1286 -80.3575 341° North 144 267 5,000  Level Miami Center
Mon 23:24:14 27.1639 -80.3725 339° North 149 275 5,000  Level Miami Center
Mon 23:25:13 27.2050 -80.3900 339° North 149 275 5,000  Level Miami Center
Mon 23:26:13 27.2422 -80.4053 340° North 149 275 5,000  Level Miami Center
Mon 23:27:12 27.2794 -80.4206 340° North 149 275 5,000  Level Miami Center
Mon 23:28:15 27.3147 -80.4333 342° North 149 275 5,000  Level Miami Center
Mon 23:29:12 27.3539 -80.4486 341° North 149 275 5,000  Level Miami Center
Mon 23:30:14 27.3997 -80.4592 348° North 149 275 5,000  Level Miami Center
Mon 23:31:14 27.4392 -80.4628 355° North 144 267 5,000  Level Miami Center
Mon 23:32:12 27.4808 -80.4664 356° North 144 267 5,000  Level Miami Center
Mon 23:33:13 27.5206 -80.4725 352° North 144 267 5,000 -150 Level Miami Center
Mon 23:34:12 27.5664 -80.4714 North 144 267 4,700 -403 Descending Miami Center
Mon 23:35:12 27.6125 -80.4658 North 155 286 4,200 -446 Descending Miami Center
Mon 23:36:13 27.6606 -80.4581 North 162 299 3,800 -450 Descending Miami Center
Mon 23:37:12 27.7047 -80.4500 North 167 309 3,300 -273 Descending Miami Center
Mon 23:39:09 27.8000 -80.4333 North 154 285 3,000 -98 Descending Orlando TRACON
Mon 23:40:15 27.8500 -80.4500 344° North 156 290 3,000 -48 Level Orlando TRACON
Mon 23:41:15 27.8833 -80.4500 360° North 123 229 2,900 -53 Descending Orlando TRACON
Mon 23:42:09 27.9167 -80.4500 360° North 119 220 2,900  Level Orlando TRACON
Mon 23:43:09 27.9500 -80.4667 336° Northwest 118 219 2,900  Level Orlando TRACON
Mon 23:44:10 27.9833 -80.4667 360° North 130 241 2,900 50 Level Orlando TRACON
Mon 23:45:10 28.0167 -80.4667 360° North 132 245 3,000 50 Climbing Orlando TRACON
Mon 23:46:10 28.0500 -80.4500 24° Northeast 137 254 3,000 -48 Level Orlando TRACON
Mon 23:47:16 28.0667 -80.4000 69° East 136 253 2,900 -190 Descending Orlando TRACON
Mon 23:48:16 28.1000 -80.4000 360° North 135 249 2,600 -368 Descending Orlando TRACON
Mon 23:49:10 28.1167 -80.4333 300° West 129 238 2,200 -421 Descending Orlando TRACON
Mon 23:50:10 28.1167 -80.4667 270° West 117 217 1,800 -300 Descending Orlando TRACON
Mon 23:51:10 28.1167 -80.5000 270° West 111 206 1,600 -150 Descending Orlando TRACON
Mon 23:52:10 28.1000 -80.5333 240° Southwest 98 182 1,500 -100 Descending Orlando TRACON
Mon 23:53:10 28.1000 -80.5667 270° West 88 163 1,400 -300 Descending Orlando TRACON
Mon 23:54:10 28.1000 -80.5833 270° West 89 164 900 -500 Descending Orlando TRACON
Mon 23:55:10 28.1000 -80.6167 270° West 83 154 400 -500 Descending Orlando TRACON

Login

Don't have an account? Register now (free) for customized features, flight alerts, and more!